createdAt,value
2017-06-27T00:00:33.053Z,54.5
2017-06-27T00:02:26.081Z,54.11
2017-06-27T00:04:42.203Z,54.11
2017-06-27T00:06:58.300Z,54.86
2017-06-27T00:09:22.778Z,53.92
2017-06-27T00:11:47.276Z,53.92
2017-06-27T00:14:11.877Z,52.98
2017-06-27T00:16:36.466Z,53.08
2017-06-27T00:18:38.059Z,53.08
2017-06-27T00:21:02.613Z,53.08
2017-06-27T00:23:27.211Z,53.85
2017-06-27T00:25:51.804Z,54.31
2017-06-27T00:28:07.897Z,52.98
2017-06-27T00:30:32.483Z,53.56
2017-06-27T00:32:48.579Z,53.63
2017-06-27T00:34:56.174Z,53.08
2017-06-27T00:37:20.770Z,53.08
2017-06-27T00:39:45.263Z,53.56
2017-06-27T00:42:10.787Z,54.41
2017-06-27T00:44:35.289Z,54.02
2017-06-27T00:46:51.399Z,53.73
2017-06-27T00:49:15.973Z,54.48
2017-06-27T00:51:32.072Z,55.26
2017-06-27T00:53:48.189Z,55.38
2017-06-27T00:56:12.744Z,55.38
2017-06-27T00:58:28.838Z,55.08
2017-06-27T01:00:28.036Z,55.18
2017-06-27T01:02:52.525Z,55.38
2017-06-27T01:05:17.020Z,55.57
2017-06-27T01:07:33.053Z,55.18
2017-06-27T01:09:57.602Z,55.57
2017-06-27T01:12:22.100Z,55.77
2017-06-27T01:14:46.696Z,56.05
2017-06-27T01:17:02.792Z,55.38
2017-06-27T01:19:27.375Z,55.96
2017-06-27T01:21:37.973Z,55.96
2017-06-27T01:24:02.550Z,56.25
2017-06-27T01:26:18.631Z,55.87
2017-06-27T01:28:43.228Z,55.38
2017-06-27T01:31:07.726Z,55.57
2017-06-27T01:33:32.212Z,55.08
2017-06-27T01:35:56.704Z,55.08
2017-06-27T01:38:21.197Z,54.44
2017-06-27T01:40:45.790Z,54.31
2017-06-27T01:42:53.384Z,54.41
2017-06-27T01:45:17.866Z,54.6
2017-06-27T01:47:25.514Z,54.99
2017-06-27T01:49:50.064Z,55.08
2017-06-27T01:52:14.659Z,55.38
2017-06-27T01:54:39.149Z,56.25
2017-06-27T01:56:40.620Z,56.83
2017-06-27T01:59:05.195Z,57.03
2017-06-27T02:01:29.688Z,58.65
2017-06-27T02:03:54.175Z,59.03
2017-06-27T02:06:01.808Z,60.3
2017-06-27T02:08:26.267Z,60.94
2017-06-27T02:10:50.758Z,61.24
2017-06-27T02:13:15.246Z,61.33
2017-06-27T02:15:39.740Z,61.91
2017-06-27T02:18:04.232Z,61.82
2017-06-27T02:20:28.721Z,62.95
2017-06-27T02:22:53.212Z,62.66
2017-06-27T02:25:17.695Z,62.56
2017-06-27T02:27:42.196Z,62.85
2017-06-27T02:29:58.232Z,63.34
2017-06-27T02:32:00.477Z,63.72
2017-06-27T02:34:24.946Z,64.37
2017-06-27T02:36:49.439Z,64.47
2017-06-27T02:39:13.929Z,65.24
2017-06-27T02:41:38.325Z,64.85
2017-06-27T02:43:54.314Z,65.92
2017-06-27T02:46:18.699Z,65.72
2017-06-27T02:48:43.089Z,65.53
2017-06-27T02:51:07.476Z,66.6
2017-06-27T02:53:31.982Z,66.5
2017-06-27T02:55:56.366Z,66.6
2017-06-27T02:58:20.745Z,66.11
2017-06-27T03:00:45.139Z,66.78
2017-06-27T03:03:01.134Z,67.18
2017-06-27T03:05:25.511Z,66.69
2017-06-27T03:07:49.912Z,66.69
2017-06-27T03:11:51.916Z,67.18
2017-06-27T03:14:16.380Z,68.05
2017-06-27T03:16:40.871Z,68.24
2017-06-27T03:18:51.481Z,69.17
2017-06-27T03:21:15.932Z,69.46
2017-06-27T03:23:40.319Z,70.04
2017-06-27T03:26:04.706Z,69.69
2017-06-27T03:28:20.643Z,69.66
2017-06-27T03:30:36.532Z,68.82
2017-06-27T03:33:00.871Z,68.91
2017-06-27T03:35:25.267Z,68.91
2017-06-27T03:37:49.652Z,69.11
2017-06-27T03:40:05.649Z,69.31
2017-06-27T03:42:21.635Z,67.85
2017-06-27T03:44:31.636Z,67.85
2017-06-27T03:46:56.077Z,68.24
2017-06-27T03:49:20.469Z,67.66
2017-06-27T03:51:44.857Z,67.63
2017-06-27T03:53:37.855Z,67.37
2017-06-27T03:56:02.303Z,67.27
2017-06-27T03:58:12.283Z,66.4
2017-06-27T04:00:28.290Z,65.43
2017-06-27T04:02:52.735Z,65.11
2017-06-27T04:05:17.126Z,65.01
2017-06-27T04:07:41.406Z,63.85
2017-06-27T04:09:51.415Z,64.07
2017-06-27T04:12:15.854Z,64.14
2017-06-27T04:14:31.793Z,64.17
2017-06-27T04:16:47.741Z,64.37
2017-06-27T04:19:03.725Z,63.31
2017-06-27T04:21:28.115Z,63.4
2017-06-27T04:23:52.508Z,63.79
2017-06-27T04:26:16.896Z,64.95
2017-06-27T04:28:41.289Z,64.5
2017-06-27T04:30:42.737Z,64.5
2017-06-27T04:32:50.285Z,64.98
2017-06-27T04:35:06.217Z,67.08
2017-06-27T04:37:22.112Z,70.3
2017-06-27T04:39:38.052Z,73.07
2017-06-27T04:42:02.393Z,72.97
2017-06-27T04:44:26.780Z,74
2017-06-27T04:46:42.664Z,74.42
2017-06-27T04:49:07.052Z,73.49
2017-06-27T04:51:31.451Z,72.81
2017-06-27T04:53:55.836Z,73.2
2017-06-27T04:56:20.225Z,73.46
2017-06-27T04:58:13.213Z,73.3
2017-06-27T05:00:29.174Z,72.42
2017-06-27T05:02:53.559Z,71.56
2017-06-27T05:04:55.038Z,70.62
2017-06-27T05:07:19.499Z,71.36
2017-06-27T05:09:43.885Z,70.5
2017-06-27T05:12:08.274Z,69.62
2017-06-27T05:14:32.662Z,70.3
2017-06-27T05:16:48.559Z,71.56
2017-06-27T05:19:12.955Z,70.2
2017-06-27T05:21:23.030Z,69.85
2017-06-27T05:23:38.994Z,68.49
2017-06-27T05:26:03.375Z,69.08
2017-06-27T05:28:19.273Z,68.4
2017-06-27T05:30:35.163Z,68.73
2017-06-27T05:32:59.548Z,67.4
2017-06-27T05:35:23.948Z,66.63
2017-06-27T05:37:48.443Z,66.34
2017-06-27T05:40:12.929Z,65.3
2017-06-27T05:42:37.420Z,64.62
2017-06-27T05:45:01.907Z,63.75
2017-06-27T05:47:17.902Z,65.82
2017-06-27T05:49:42.397Z,67.33
2017-06-27T05:52:06.883Z,67.91
2017-06-27T05:54:31.272Z,66.14
2017-06-27T05:56:55.764Z,67.85
2017-06-27T05:59:11.754Z,69.85
2017-06-27T06:01:13.733Z,71.11
2017-06-27T06:03:29.713Z,69.4
2017-06-27T06:05:45.689Z,69.82
2017-06-27T06:08:10.201Z,69.43
2017-06-27T06:10:28.241Z,70.08
2017-06-27T06:12:44.236Z,72.68
2017-06-27T06:15:17.523Z,72.24
2017-06-27T06:19:09.601Z,70.82
2017-06-27T06:21:33.965Z,71.66
2017-06-27T06:23:58.359Z,71.36
2017-06-27T06:26:22.738Z,70.24
2017-06-27T06:28:47.228Z,67.21
2017-06-27T06:31:18.482Z,67.02
2017-06-27T06:33:44.934Z,65.98
2017-06-27T06:36:00.911Z,67.3
2017-06-27T06:40:01.565Z,67.69
2017-06-27T06:42:26.057Z,66.82
2017-06-27T06:44:50.553Z,66.27
2017-06-27T06:47:14.966Z,65.89
2017-06-27T06:49:39.424Z,64.72
2017-06-27T06:52:03.816Z,67.08
2017-06-27T06:54:29.341Z,67.95
2017-06-27T06:56:53.826Z,67.5
2017-06-27T06:59:19.332Z,65.79
2017-06-27T07:01:43.828Z,65.66
2017-06-27T07:04:08.312Z,64.47
2017-06-27T07:08:09.008Z,64.53
2017-06-27T07:12:06.583Z,61.91
2017-06-27T07:16:07.395Z,62.19
2017-06-27T07:21:36.005Z,61.42
2017-06-27T07:25:36.856Z,59.92
2017-06-27T07:29:37.837Z,57.07
2017-06-27T07:33:38.670Z,56.41
2017-06-27T07:37:39.519Z,55.01
2017-06-27T07:40:05.270Z,53.19
2017-06-27T07:42:13.184Z,50.73
2017-06-27T07:44:29.605Z,50.53
2017-06-27T07:46:54.583Z,47.7
2017-06-27T07:49:19.605Z,50.7
2017-06-27T07:51:44.688Z,48.36
2017-06-27T07:54:09.625Z,48.02
2017-06-27T07:56:20.272Z,50.02
2017-06-27T07:58:45.276Z,51.63
2017-06-27T08:01:01.766Z,52.34
2017-06-27T08:03:27.807Z,52.02
2017-06-27T08:05:52.811Z,52.02
2017-06-27T08:08:17.805Z,51.09
2017-06-27T08:10:42.818Z,48.16
2017-06-27T08:13:07.821Z,48.51
2017-06-27T08:15:32.839Z,47.77
2017-06-27T08:17:57.826Z,44.05
2017-06-27T08:20:22.938Z,41.58
2017-06-27T08:22:48.038Z,40.8
2017-06-27T08:25:13.263Z,36.05
2017-06-27T08:29:14.991Z,28.59
2017-06-27T08:31:17.194Z,27.21
2017-06-27T08:33:42.854Z,27.77
2017-06-27T08:36:08.578Z,31.9
2017-06-27T08:38:25.793Z,34.28
2017-06-27T08:40:51.510Z,38.46
2017-06-27T08:43:17.122Z,36.38
2017-06-27T08:45:42.632Z,35.41
2017-06-27T08:48:09.172Z,37.15
2017-06-27T08:50:17.574Z,37.99
2017-06-27T08:52:34.497Z,38.66
2017-06-27T08:54:51.408Z,40.68
2017-06-27T08:57:16.815Z,42.81
2017-06-27T08:59:42.129Z,42.46
2017-06-27T09:02:07.441Z,42.66
2017-06-27T09:04:32.740Z,40.09
2017-06-27T09:06:34.987Z,40.37
2017-06-27T09:09:00.224Z,40.66
2017-06-27T09:11:25.402Z,40.86
2017-06-27T09:13:50.641Z,38.27
2017-06-27T09:16:15.851Z,39.59
2017-06-27T09:18:41.068Z,38.37
2017-06-27T09:21:06.372Z,37.52
2017-06-27T09:23:31.577Z,38.37
2017-06-27T09:25:48.310Z,40.27
2017-06-27T09:28:14.625Z,40.27
2017-06-27T09:30:39.934Z,39.43
2017-06-27T09:33:05.140Z,39.45
2017-06-27T09:35:21.849Z,39.06
2017-06-27T09:37:38.664Z,38.56
2017-06-27T09:40:03.867Z,38.66
2017-06-27T09:42:20.578Z,39.53
2017-06-27T09:44:45.780Z,40.88
2017-06-27T09:47:02.495Z,40.39
2017-06-27T09:49:27.601Z,40.88
2017-06-27T09:51:52.802Z,39.76
2017-06-27T09:54:17.926Z,40.03
2017-06-27T09:56:43.026Z,39.19
2017-06-27T09:59:08.238Z,38.62
2017-06-27T10:01:25.892Z,38.88
2017-06-27T10:03:42.580Z,39.62
2017-06-27T10:05:53.336Z,39.35
2017-06-27T10:08:10.017Z,40
2017-06-27T10:12:02.945Z,42.27
2017-06-27T10:14:28.118Z,42.27
2017-06-27T10:16:38.844Z,42.58
2017-06-27T10:18:55.476Z,42.58
2017-06-27T10:21:20.546Z,41.62
2017-06-27T10:23:45.602Z,41.35
2017-06-27T10:26:10.657Z,41.05
2017-06-27T10:28:35.802Z,42.68
2017-06-27T10:30:52.430Z,42.9
2017-06-27T10:33:26.154Z,41.86
2017-06-27T10:35:53.304Z,41.29
2017-06-27T10:38:20.389Z,39.19
2017-06-27T10:41:00.136Z,38.24
2017-06-27T10:43:32.180Z,37.85
2017-06-27T10:45:57.426Z,38.62
2017-06-27T10:48:14.212Z,37.65
2017-06-27T10:50:41.444Z,35.76
2017-06-27T10:53:06.756Z,35.18
2017-06-27T10:55:38.666Z,34.41
2017-06-27T10:57:40.877Z,35.17
2017-06-27T11:00:07.305Z,35.54
2017-06-27T11:02:32.634Z,35.92
2017-06-27T11:04:58.005Z,36.95
2017-06-27T11:07:24.321Z,36.32
2017-06-27T11:09:49.675Z,36.57
2017-06-27T11:12:06.466Z,38.85
2017-06-27T11:14:32.774Z,39.53
2017-06-27T11:16:58.042Z,38.98
2017-06-27T11:19:23.321Z,38.48
2017-06-27T11:21:48.642Z,38.58
2017-06-27T11:24:13.942Z,37.85
2017-06-27T11:26:39.224Z,36.79
2017-06-27T11:29:04.534Z,36.59
2017-06-27T11:31:30.824Z,37.05
2017-06-27T11:33:57.207Z,38.01
2017-06-27T11:36:22.509Z,38.29
2017-06-27T11:38:47.805Z,37.9
2017-06-27T11:41:15.125Z,39.33
2017-06-27T11:43:40.402Z,39.54
2017-06-27T11:46:05.729Z,40.86
2017-06-27T11:48:31.026Z,39.45
2017-06-27T11:52:32.745Z,42.19
2017-06-27T11:54:45.506Z,41.25
2017-06-27T11:57:10.283Z,40.98
2017-06-27T11:59:35.615Z,43.29
2017-06-27T12:01:52.266Z,41.74
2017-06-27T12:04:18.524Z,41.35
2017-06-27T12:06:43.784Z,40.33
2017-06-27T12:09:09.057Z,38.8
2017-06-27T12:11:11.213Z,37.08
2017-06-27T12:13:36.498Z,36.99
2017-06-27T12:16:01.753Z,36.28
2017-06-27T12:18:27.026Z,37.03
2017-06-27T12:20:37.853Z,37.82
2017-06-27T12:23:03.147Z,38.37
2017-06-27T12:25:21.871Z,38.84
2017-06-27T12:27:38.610Z,37.19
2017-06-27T12:30:03.887Z,36.74
2017-06-27T12:32:29.111Z,37.88
2017-06-27T12:34:54.400Z,38.74
2017-06-27T12:37:19.667Z,37.98
2017-06-27T12:39:45.926Z,36.44
2017-06-27T12:42:12.176Z,35.47
2017-06-27T12:44:28.906Z,36.75
2017-06-27T12:46:54.172Z,36.44
2017-06-27T12:49:19.470Z,38.9
2017-06-27T12:51:44.767Z,37.74
2017-06-27T12:54:01.557Z,36.11
2017-06-27T12:56:26.819Z,36.22
2017-06-27T12:58:52.071Z,35.74
2017-06-27T13:00:54.264Z,36.52
2017-06-27T13:03:19.547Z,35.75
2017-06-27T13:05:36.302Z,35.74
2017-06-27T13:07:53.037Z,36.13
2017-06-27T13:10:18.260Z,35.95
2017-06-27T13:12:37.014Z,35.47
2017-06-27T13:15:02.319Z,35.87
2017-06-27T13:17:27.577Z,37.72
2017-06-27T13:19:52.809Z,38.03
2017-06-27T13:22:18.049Z,38.21
2017-06-27T13:24:44.281Z,38.8
2017-06-27T13:27:09.558Z,39.76
2017-06-27T13:29:34.819Z,39.25
2017-06-27T13:32:00.054Z,37.93
2017-06-27T13:34:25.283Z,37.84
2017-06-27T13:36:42.079Z,36.88
2017-06-27T13:39:07.355Z,36.4
2017-06-27T13:41:32.676Z,37.07
2017-06-27T13:43:57.991Z,36.11
2017-06-27T13:46:00.204Z,35.35
2017-06-27T13:48:02.395Z,35.33
2017-06-27T13:50:19.276Z,35.15
2017-06-27T13:52:44.653Z,35.72
2017-06-27T13:54:46.975Z,35.99
2017-06-27T13:57:12.331Z,38.17
2017-06-27T13:59:39.643Z,37.42
2017-06-27T14:02:04.900Z,36.65
2017-06-27T14:04:30.213Z,37.92
2017-06-27T14:06:57.451Z,37.9
2017-06-27T14:09:22.719Z,38.76
2017-06-27T14:11:48.946Z,37.82
2017-06-27T14:13:57.131Z,38.58
2017-06-27T14:16:22.318Z,37.9
2017-06-27T14:18:47.705Z,38.66
2017-06-27T14:21:27.709Z,37.99
2017-06-27T14:23:38.481Z,38.66
2017-06-27T14:26:03.735Z,37.9
2017-06-27T14:28:20.473Z,36.83
2017-06-27T14:30:45.665Z,37.32
2017-06-27T14:33:02.441Z,37.52
2017-06-27T14:35:27.615Z,37.8
2017-06-27T14:37:52.845Z,37.5
2017-06-27T14:40:18.197Z,37.78
2017-06-27T14:42:44.634Z,37.19
2017-06-27T14:45:09.975Z,37.98
2017-06-27T14:47:26.678Z,37.8
2017-06-27T14:49:43.379Z,37.3
2017-06-27T14:52:08.591Z,37.4
2017-06-27T14:54:34.009Z,37.01
2017-06-27T14:56:59.223Z,37.48
2017-06-27T14:59:25.441Z,38.06
2017-06-27T15:01:51.261Z,37.96
2017-06-27T15:04:16.582Z,38.25
2017-06-27T15:06:41.786Z,39.49
2017-06-27T15:09:06.951Z,39.56
2017-06-27T15:11:17.707Z,39.11
2017-06-27T15:13:42.874Z,39.19
2017-06-27T15:16:08.103Z,39.69
2017-06-27T15:18:33.289Z,38.82
2017-06-27T15:20:58.510Z,38.43
2017-06-27T15:23:00.705Z,37.68
2017-06-27T15:25:26.907Z,36.52
2017-06-27T15:27:52.111Z,37.68
2017-06-27T15:29:54.265Z,37.21
2017-06-27T15:31:56.393Z,36.34
2017-06-27T15:34:13.161Z,36.07
2017-06-27T15:36:38.465Z,35.39
2017-06-27T15:38:55.277Z,35.47
2017-06-27T15:41:20.593Z,35.97
2017-06-27T15:43:37.406Z,36.54
2017-06-27T15:45:54.254Z,35.97
2017-06-27T15:48:11.024Z,36.63
2017-06-27T15:50:13.190Z,37.01
2017-06-27T15:52:38.501Z,39.59
2017-06-27T15:55:03.818Z,37.99
2017-06-27T15:57:20.615Z,40.63
2017-06-27T15:59:45.941Z,39.11
2017-06-27T16:02:02.744Z,38.37
2017-06-27T16:04:27.953Z,38.82
2017-06-27T16:06:53.167Z,38.27
2017-06-27T16:09:18.378Z,37.86
2017-06-27T16:11:43.573Z,40.35
2017-06-27T16:14:08.789Z,39.41
2017-06-27T16:16:33.997Z,38.82
2017-06-27T16:18:59.204Z,38.82
2017-06-27T16:21:24.419Z,39.39
2017-06-27T16:23:49.619Z,40.63
2017-06-27T16:26:14.831Z,42.09
2017-06-27T16:28:31.533Z,41.6
2017-06-27T16:30:56.746Z,41.8
2017-06-27T16:33:21.856Z,42.74
2017-06-27T16:35:47.056Z,45.43
2017-06-27T16:38:12.165Z,47.51
2017-06-27T16:40:37.271Z,46.48
2017-06-27T16:43:02.374Z,46.5
2017-06-27T16:45:18.881Z,46.78
2017-06-27T16:47:44.005Z,47.34
2017-06-27T16:49:45.671Z,47.66
2017-06-27T16:52:02.253Z,47.19
2017-06-27T16:54:18.868Z,46.5
2017-06-27T16:56:44.564Z,47.05
2017-06-27T16:59:09.576Z,46.58
2017-06-27T17:01:34.582Z,46.21
2017-06-27T17:03:51.090Z,46.62
2017-06-27T17:06:16.091Z,47.07
2017-06-27T17:08:41.085Z,47.63
2017-06-27T17:11:21.978Z,49.44
2017-06-27T17:13:38.482Z,50.68
2017-06-27T17:15:40.660Z,50.51
2017-06-27T17:18:06.683Z,49.54
2017-06-27T17:20:31.669Z,49.27
2017-06-27T17:22:56.673Z,49.93
2017-06-27T17:26:57.962Z,50.41
2017-06-27T17:29:22.934Z,50.12
2017-06-27T17:31:47.846Z,50.51
2017-06-27T17:34:12.727Z,50.87
2017-06-27T17:36:27.296Z,52.04
2017-06-27T17:38:52.301Z,52.04
2017-06-27T17:41:17.227Z,50.51
2017-06-27T17:43:42.105Z,50.8
2017-06-27T17:46:07.094Z,50.36
2017-06-27T17:48:23.531Z,51.85
2017-06-27T17:50:48.520Z,53.19
2017-06-27T17:53:13.414Z,53.5
2017-06-27T17:55:29.808Z,53.31
2017-06-27T17:57:31.893Z,53.31
2017-06-27T18:00:03.871Z,51.7
2017-06-27T18:02:28.849Z,53.11
2017-06-27T18:04:45.191Z,54.48
2017-06-27T18:07:10.045Z,54.75
2017-06-27T18:09:26.378Z,55.04
2017-06-27T18:11:42.752Z,55.36
2017-06-27T18:14:07.612Z,56.86
2017-06-27T18:18:08.408Z,56.93
2017-06-27T18:20:24.764Z,56.67
2017-06-27T18:22:49.599Z,56.18
2017-06-27T18:25:14.504Z,56.37
2017-06-27T18:27:25.157Z,55.13
2017-06-27T18:29:50.076Z,55.26
2017-06-27T18:32:14.854Z,55.13
2017-06-27T18:34:39.680Z,56.27
2017-06-27T18:37:04.474Z,56.84
2017-06-27T18:39:29.170Z,57.03
2017-06-27T18:41:53.948Z,57.81
2017-06-27T18:44:01.862Z,59.01
2017-06-27T18:48:02.847Z,61.12
2017-06-27T18:50:28.735Z,61.71
2017-06-27T18:52:53.565Z,60.83
2017-06-27T18:56:54.830Z,61.51
2017-06-27T18:59:19.784Z,62.38
2017-06-27T19:01:44.908Z,61.9
2017-06-27T19:04:01.496Z,60.74
2017-06-27T19:06:12.366Z,61.22
2017-06-27T19:08:14.574Z,61.19
2017-06-27T19:10:39.578Z,61.68
2017-06-27T19:12:41.994Z,61.77
2017-06-27T19:14:44.210Z,61.48
2017-06-27T19:18:45.773Z,61.58
2017-06-27T19:21:10.750Z,61
2017-06-27T19:23:35.748Z,61.58
2017-06-27T19:26:00.756Z,60.8
2017-06-27T19:28:27.633Z,62.68
2017-06-27T19:30:55.074Z,62.49
2017-06-27T19:32:57.341Z,63.26
2017-06-27T19:35:22.447Z,63.07
2017-06-27T19:39:23.866Z,63.65
2017-06-27T19:41:48.695Z,63.07
2017-06-27T19:44:15.917Z,63.91
2017-06-27T19:46:48.572Z,63.72
2017-06-27T19:49:21.173Z,63.85
2017-06-27T19:51:47.651Z,64.11
2017-06-27T19:54:04.182Z,63.46
2017-06-27T19:56:29.189Z,64.04
2017-06-27T19:58:54.313Z,64.69
2017-06-27T20:01:20.492Z,64.2
2017-06-27T20:03:46.701Z,63.75
2017-06-27T20:06:11.256Z,63.85
2017-06-27T20:08:36.835Z,64.78
2017-06-27T20:11:04.583Z,64.4
2017-06-27T20:13:29.715Z,64.01
2017-06-27T20:15:54.864Z,64.2
2017-06-27T20:18:20.233Z,63.56
2017-06-27T20:22:21.463Z,64.3
2017-06-27T20:24:46.448Z,64.3
2017-06-27T20:27:03.461Z,63.26
2017-06-27T20:29:21.059Z,62.68
2017-06-27T20:33:24.370Z,62.49
2017-06-27T20:35:34.392Z,62.88
2017-06-27T20:37:59.433Z,63.33
2017-06-27T20:40:24.370Z,62.39
2017-06-27T20:42:49.224Z,62.98
2017-06-27T20:45:14.003Z,64.14
2017-06-27T20:47:38.900Z,64.69
2017-06-27T20:50:03.554Z,64.5
2017-06-27T20:52:11.395Z,65.47
2017-06-27T20:54:35.942Z,65.27
2017-06-27T20:57:00.529Z,65.34
2017-06-27T20:59:25.032Z,64.4
2017-06-27T21:01:49.621Z,64.78
2017-06-27T21:04:14.225Z,64.5
2017-06-27T21:06:38.818Z,63.65
2017-06-27T21:09:03.407Z,64.23
2017-06-27T21:11:28.305Z,65.37
2017-06-27T21:15:29.087Z,64.62
2017-06-27T21:19:29.877Z,64.14
2017-06-27T21:23:22.197Z,65.47
2017-06-27T21:27:22.974Z,66.69
2017-06-27T21:31:23.767Z,65.2
2017-06-27T21:35:24.556Z,64.98
2017-06-27T21:39:25.347Z,65.95
2017-06-27T21:45:02.393Z,66.99
2017-06-27T21:48:54.677Z,66.6
2017-06-27T21:52:55.351Z,67.66
2017-06-27T21:56:56.083Z,68.24
2017-06-27T22:00:56.792Z,68.89
2017-06-27T22:04:57.531Z,68.6
2017-06-27T22:08:58.222Z,69.37
2017-06-27T22:12:58.912Z,69.18
2017-06-27T22:16:59.582Z,69.47
2017-06-27T22:21:00.310Z,69.31
2017-06-27T22:25:01.043Z,69.67
2017-06-27T22:29:01.697Z,70.25
2017-06-27T22:33:02.341Z,70.25
2017-06-27T22:36:54.583Z,71.76
2017-06-27T22:40:55.189Z,72.3
2017-06-27T22:43:35.548Z,71.08
2017-06-27T22:47:36.204Z,71.66
2017-06-27T22:51:36.868Z,70.25
2017-06-27T22:53:47.447Z,70.05
2017-06-27T22:56:20.815Z,70.79
2017-06-27T22:58:22.751Z,70.25
2017-06-27T23:02:23.454Z,70.15
2017-06-27T23:06:24.106Z,70.25
2017-06-27T23:10:24.772Z,71.95
2017-06-27T23:14:24.908Z,72.21
2017-06-27T23:18:25.547Z,71.86
2017-06-27T23:22:26.185Z,73.37
2017-06-27T23:26:27.630Z,74.24
2017-06-27T23:28:29.569Z,75.02
2017-06-27T23:32:30.250Z,74.73
2017-06-27T23:37:58.620Z,76.72
2017-06-27T23:41:59.215Z,76.33
2017-06-27T23:45:59.803Z,77.01
2017-06-27T23:50:00.385Z,76.53
2017-06-27T23:54:00.998Z,76.43
2017-06-27T23:58:01.542Z,75.11
